createdAt,value
2022-10-23T00:01:46.969Z,99726.88
2022-10-23T00:04:16.331Z,99724.41
2022-10-23T00:06:44.805Z,99720.13
2022-10-23T00:09:15.985Z,99722.28
2022-10-23T00:11:44.576Z,99716.28
2022-10-23T00:14:12.065Z,99719.69
2022-10-23T00:16:39.576Z,99719.50
2022-10-23T00:19:07.648Z,99720.34
2022-10-23T00:21:35.111Z,99722.22
2022-10-23T00:24:02.804Z,99715.00
2022-10-23T00:26:31.774Z,99716.91
2022-10-23T00:28:59.239Z,99723.91
2022-10-23T00:31:27.131Z,99732.16
2022-10-23T00:33:54.645Z,99720.75
2022-10-23T00:36:23.215Z,99729.47
2022-10-23T00:38:52.036Z,99726.47
2022-10-23T00:41:22.847Z,99729.16
2022-10-23T00:44:04.946Z,99724.78
2022-10-23T00:46:32.768Z,99716.63
2022-10-23T00:49:01.220Z,99723.00
2022-10-23T00:51:32.537Z,99725.06
2022-10-23T00:56:52.334Z,99736.03
2022-10-23T00:59:21.304Z,99735.00
2022-10-23T01:01:49.293Z,99733.06
2022-10-23T01:04:17.615Z,99723.94
2022-10-23T01:06:53.816Z,99716.38
2022-10-23T01:09:29.955Z,99719.81
2022-10-23T01:12:02.797Z,99714.88
2022-10-23T01:14:38.681Z,99710.94
2022-10-23T01:17:12.450Z,99712.94
2022-10-23T01:19:50.519Z,99710.03
2022-10-23T01:22:34.214Z,99705.00
2022-10-23T01:25:07.441Z,99706.81
2022-10-23T01:27:40.786Z,99704.69
2022-10-23T01:30:11.791Z,99707.78
2022-10-23T01:32:45.456Z,99708.09
2022-10-23T01:35:15.849Z,99704.47
2022-10-23T01:37:46.157Z,99699.31
2022-10-23T01:40:23.510Z,99700.06
2022-10-23T01:42:56.483Z,99696.00
2022-10-23T01:45:29.129Z,99694.38
2022-10-23T01:47:57.819Z,99694.72
2022-10-23T01:50:27.631Z,99686.84
2022-10-23T01:52:55.106Z,99678.81
2022-10-23T01:55:24.794Z,99677.19
2022-10-23T01:57:54.705Z,99681.28
2022-10-23T02:00:22.400Z,99676.34
2022-10-23T02:02:52.083Z,99670.44
2022-10-23T02:05:24.622Z,99660.88
2022-10-23T02:07:52.857Z,99663.00
2022-10-23T02:10:22.164Z,99658.72
2022-10-23T02:12:59.379Z,99651.88
2022-10-23T02:15:33.124Z,99652.63
2022-10-23T02:18:09.573Z,99644.66
2022-10-23T02:20:41.838Z,99638.34
2022-10-23T02:23:20.370Z,99634.72
2022-10-23T02:25:55.192Z,99632.91
2022-10-23T02:28:28.837Z,99628.06
2022-10-23T02:31:00.086Z,99632.34
2022-10-23T02:33:28.973Z,99636.41
2022-10-23T02:35:56.767Z,99632.03
2022-10-23T02:38:30.633Z,99632.34
2022-10-23T02:41:00.233Z,99630.22
2022-10-23T02:43:34.865Z,99619.03
2022-10-23T02:46:10.586Z,99619.47
2022-10-23T02:48:44.086Z,99615.50
2022-10-23T02:51:18.648Z,99606.78
2022-10-23T02:56:36.714Z,99596.59
2022-10-23T02:59:12.073Z,99606.13
2022-10-23T03:01:48.248Z,99593.84
2022-10-23T03:04:18.112Z,99600.47
2022-10-23T03:06:46.355Z,99603.03
2022-10-23T03:09:13.869Z,99598.44
2022-10-23T03:11:41.340Z,99600.03
2022-10-23T03:14:10.821Z,99595.84
2022-10-23T03:16:38.330Z,99593.63
2022-10-23T03:19:05.864Z,99594.88
2022-10-23T03:21:33.446Z,99586.72
2022-10-23T03:24:01.006Z,99582.00
2022-10-23T03:26:28.509Z,99579.75
2022-10-23T03:28:55.970Z,99577.84
2022-10-23T03:31:24.764Z,99572.88
2022-10-23T03:33:52.261Z,99567.84
2022-10-23T03:36:19.712Z,99566.38
2022-10-23T03:38:47.174Z,99563.03
2022-10-23T03:41:14.675Z,99551.78
2022-10-23T03:43:42.173Z,99546.59
2022-10-23T03:46:12.645Z,99559.16
2022-10-23T03:48:42.045Z,99555.13
2022-10-23T03:51:09.607Z,99558.13
2022-10-23T03:53:37.113Z,99560.06
2022-10-23T03:56:05.643Z,99542.28
2022-10-23T03:58:33.093Z,99548.66
2022-10-23T04:01:00.713Z,99541.22
2022-10-23T04:03:28.278Z,99549.06
2022-10-23T04:05:57.303Z,99535.84
2022-10-23T04:08:24.815Z,99532.69
2022-10-23T04:10:52.314Z,99525.38
2022-10-23T04:13:19.782Z,99530.72
2022-10-23T04:15:50.253Z,99538.31
2022-10-23T04:18:18.508Z,99540.88
2022-10-23T04:20:48.980Z,99541.63
2022-10-23T04:23:18.747Z,99541.50
2022-10-23T04:28:19.073Z,99541.66
2022-10-23T04:30:46.537Z,99544.47
2022-10-23T04:33:14.029Z,99545.72
2022-10-23T04:35:41.560Z,99531.94
2022-10-23T04:38:09.004Z,99528.25
2022-10-23T04:40:38.529Z,99527.03
2022-10-23T04:43:06.043Z,99529.75
2022-10-23T04:45:33.529Z,99533.06
2022-10-23T04:48:01.165Z,99533.06
2022-10-23T04:50:28.642Z,99524.59
2022-10-23T04:52:57.038Z,99526.56
2022-10-23T04:55:25.593Z,99518.88
2022-10-23T04:57:54.467Z,99513.63
2022-10-23T05:00:22.049Z,99521.56
2022-10-23T05:02:49.542Z,99521.91
2022-10-23T05:05:17.198Z,99507.84
2022-10-23T05:07:44.913Z,99507.91
2022-10-23T05:10:12.576Z,99507.44
2022-10-23T05:12:40.079Z,99498.63
2022-10-23T05:15:09.657Z,99499.38
2022-10-23T05:17:40.811Z,99495.50
2022-10-23T05:20:12.652Z,99500.75
2022-10-23T05:22:42.995Z,99508.41
2022-10-23T05:25:11.283Z,99502.88
2022-10-23T05:27:38.800Z,99501.69
2022-10-23T05:30:07.466Z,99496.03
2022-10-23T05:32:37.760Z,99488.31
2022-10-23T05:35:09.412Z,99486.31
2022-10-23T05:37:39.246Z,99498.34
2022-10-23T05:40:07.873Z,99495.44
2022-10-23T05:42:37.219Z,99494.59
2022-10-23T05:45:08.060Z,99490.06
2022-10-23T05:47:37.353Z,99481.63
2022-10-23T05:50:05.296Z,99483.59
2022-10-23T05:52:32.774Z,99486.25
2022-10-23T05:55:00.271Z,99482.28
2022-10-23T05:57:27.733Z,99478.19
2022-10-23T05:59:55.230Z,99459.72
2022-10-23T06:02:22.790Z,99469.31
2022-10-23T06:04:51.652Z,99453.84
2022-10-23T06:07:24.334Z,99453.34
2022-10-23T06:09:52.871Z,99448.28
2022-10-23T06:12:20.438Z,99458.47
2022-10-23T06:14:48.103Z,99452.84
2022-10-23T06:17:15.929Z,99449.00
2022-10-23T06:19:44.974Z,99446.56
2022-10-23T06:22:14.110Z,99443.44
2022-10-23T06:24:41.628Z,99437.41
2022-10-23T06:27:09.146Z,99435.72
2022-10-23T06:29:36.616Z,99436.69
2022-10-23T06:32:04.143Z,99437.22
2022-10-23T06:34:31.976Z,99431.50
2022-10-23T06:36:59.452Z,99438.16
2022-10-23T06:39:31.167Z,99435.16
2022-10-23T06:41:59.764Z,99440.06
2022-10-23T06:44:27.354Z,99435.97
2022-10-23T06:46:54.834Z,99440.56
2022-10-23T06:49:22.317Z,99442.88
2022-10-23T06:51:49.774Z,99439.28
2022-10-23T06:54:17.223Z,99441.16
2022-10-23T06:56:46.080Z,99441.50
2022-10-23T06:59:14.174Z,99444.06
2022-10-23T07:01:41.843Z,99439.03
2022-10-23T07:04:09.598Z,99439.56
2022-10-23T07:06:37.087Z,99440.06
2022-10-23T07:09:04.882Z,99433.06
2022-10-23T07:11:32.400Z,99435.97
2022-10-23T07:14:01.236Z,99430.59
2022-10-23T07:16:28.694Z,99427.66
2022-10-23T07:18:59.221Z,99430.41
2022-10-23T07:21:26.881Z,99431.81
2022-10-23T07:23:54.391Z,99422.53
2022-10-23T07:26:21.955Z,99427.53
2022-10-23T07:28:51.379Z,99432.09
2022-10-23T07:31:24.300Z,99429.41
2022-10-23T07:33:54.763Z,99430.88
2022-10-23T07:36:22.526Z,99427.53
2022-10-23T07:38:50.994Z,99432.34
2022-10-23T07:41:18.829Z,99425.81
2022-10-23T07:43:47.102Z,99429.03
2022-10-23T07:46:14.564Z,99420.91
2022-10-23T07:48:43.447Z,99423.34
2022-10-23T07:51:14.681Z,99414.41
2022-10-23T07:53:43.110Z,99409.44
2022-10-23T07:56:16.974Z,99415.75
2022-10-23T07:58:44.792Z,99414.25
2022-10-23T08:01:18.025Z,99416.84
2022-10-23T08:03:47.441Z,99408.84
2022-10-23T08:06:15.409Z,99409.34
2022-10-23T08:08:42.883Z,99408.97
2022-10-23T08:11:13.505Z,99400.53
2022-10-23T08:13:41.243Z,99405.91
2022-10-23T08:16:09.225Z,99396.91
2022-10-23T08:18:36.722Z,99396.31
2022-10-23T08:21:05.776Z,99390.56
2022-10-23T08:23:33.267Z,99389.59
2022-10-23T08:26:02.886Z,99387.16
2022-10-23T08:28:30.440Z,99387.53
2022-10-23T08:30:57.925Z,99379.38
2022-10-23T08:33:25.855Z,99375.44
2022-10-23T08:35:53.346Z,99371.03
2022-10-23T08:38:22.117Z,99369.59
2022-10-23T08:40:50.486Z,99378.00
2022-10-23T08:43:26.577Z,99375.44
2022-10-23T08:45:59.684Z,99380.63
2022-10-23T08:48:31.493Z,99378.03
2022-10-23T08:51:07.089Z,99370.78
2022-10-23T08:53:41.973Z,99373.75
2022-10-23T08:56:15.256Z,99363.50
2022-10-23T08:58:46.453Z,99362.09
2022-10-23T09:01:32.125Z,99355.13
2022-10-23T09:03:59.763Z,99354.47
2022-10-23T09:06:35.357Z,99352.56
2022-10-23T09:09:28.228Z,99345.91
2022-10-23T09:12:04.283Z,99350.03
2022-10-23T09:14:57.017Z,99343.75
2022-10-23T09:17:27.395Z,99347.69
2022-10-23T09:20:00.429Z,99350.56
2022-10-23T09:22:29.800Z,99343.25
2022-10-23T09:24:58.659Z,99346.41
2022-10-23T09:27:26.150Z,99340.78
2022-10-23T09:29:55.308Z,99329.47
2022-10-23T09:32:33.806Z,99335.47
2022-10-23T09:35:01.589Z,99327.97
2022-10-23T09:37:30.854Z,99321.03
2022-10-23T09:40:13.981Z,99316.00
2022-10-23T09:42:51.936Z,99305.28
2022-10-23T09:45:24.765Z,99298.78
2022-10-23T09:47:52.322Z,99299.13
2022-10-23T09:50:21.798Z,99294.44
2022-10-23T09:52:58.115Z,99293.47
2022-10-23T09:55:28.346Z,99299.41
2022-10-23T09:57:56.317Z,99298.13
2022-10-23T10:00:25.778Z,99307.94
2022-10-23T10:02:58.556Z,99298.03
2022-10-23T10:05:28.242Z,99293.94
2022-10-23T10:07:58.234Z,99296.13
2022-10-23T10:10:33.927Z,99293.75
2022-10-23T10:13:10.824Z,99283.75
2022-10-23T10:15:49.704Z,99277.72
2022-10-23T10:18:27.906Z,99279.44
2022-10-23T10:21:07.385Z,99268.66
2022-10-23T10:23:43.423Z,99276.88
2022-10-23T10:26:23.376Z,99282.56
2022-10-23T10:29:03.754Z,99275.81
2022-10-23T10:31:42.238Z,99280.50
2022-10-23T10:34:17.357Z,99267.03
2022-10-23T10:36:51.834Z,99255.16
2022-10-23T10:39:32.946Z,99250.31
2022-10-23T10:42:30.124Z,99254.16
2022-10-23T10:45:15.647Z,99244.72
2022-10-23T10:47:56.367Z,99247.59
2022-10-23T10:50:30.261Z,99235.34
2022-10-23T10:53:05.246Z,99239.47
2022-10-23T10:55:34.614Z,99232.25
2022-10-23T10:58:11.703Z,99229.69
2022-10-23T11:00:39.303Z,99224.97
2022-10-23T11:03:25.963Z,99230.38
2022-10-23T11:05:56.929Z,99224.97
2022-10-23T11:08:44.475Z,99214.91
2022-10-23T11:11:28.046Z,99211.38
2022-10-23T11:13:57.565Z,99195.03
2022-10-23T11:16:29.153Z,99190.78
2022-10-23T11:19:09.940Z,99186.66
2022-10-23T11:21:45.148Z,99177.56
2022-10-23T11:24:39.452Z,99176.28
2022-10-23T11:27:51.729Z,99168.31
2022-10-23T11:30:25.804Z,99166.06
2022-10-23T11:33:31.470Z,99166.00
2022-10-23T11:36:07.153Z,99154.94
2022-10-23T11:38:37.741Z,99138.63
2022-10-23T11:41:07.991Z,99138.78
2022-10-23T11:43:49.548Z,99125.59
2022-10-23T11:46:30.486Z,99123.47
2022-10-23T11:48:58.648Z,99123.00
2022-10-23T11:51:28.889Z,99133.97
2022-10-23T11:54:07.862Z,99126.13
2022-10-23T11:56:35.437Z,99134.53
2022-10-23T11:59:23.335Z,99131.66
2022-10-23T12:01:54.070Z,99127.41
2022-10-23T12:04:25.448Z,99123.16
2022-10-23T12:06:56.357Z,99116.91
2022-10-23T12:09:28.637Z,99107.69
2022-10-23T12:12:28.415Z,99090.66
2022-10-23T12:15:09.172Z,99085.97
2022-10-23T12:17:39.999Z,99084.41
2022-10-23T12:20:28.057Z,99085.28
2022-10-23T12:23:10.647Z,99075.75
2022-10-23T12:25:51.640Z,99091.94
2022-10-23T12:28:30.813Z,99088.53
2022-10-23T12:31:14.096Z,99060.84
2022-10-23T12:33:50.769Z,99050.59
2022-10-23T12:36:31.097Z,99035.97
2022-10-23T12:38:58.781Z,99043.34
2022-10-23T12:41:27.612Z,99037.91
2022-10-23T12:43:59.202Z,99041.59
2022-10-23T12:46:31.818Z,99043.69
2022-10-23T12:49:04.781Z,99032.00
2022-10-23T12:51:34.210Z,99027.75
2022-10-23T12:54:03.211Z,99026.41
2022-10-23T12:56:36.698Z,99025.00
2022-10-23T12:59:06.197Z,99010.09
2022-10-23T13:01:35.448Z,99003.13
2022-10-23T13:04:12.301Z,98999.53
2022-10-23T13:06:40.834Z,98994.69
2022-10-23T13:09:20.975Z,99009.06
2022-10-23T13:11:48.693Z,99004.81
2022-10-23T13:14:31.087Z,99002.13
2022-10-23T13:17:02.867Z,99002.00
2022-10-23T13:19:32.086Z,98991.06
2022-10-23T13:22:00.677Z,98984.09
2022-10-23T13:24:30.056Z,98983.72
2022-10-23T13:26:58.273Z,98989.50
2022-10-23T13:29:30.389Z,98972.00
2022-10-23T13:31:58.468Z,98987.00
2022-10-23T13:34:28.333Z,98974.50
2022-10-23T13:37:22.654Z,98979.75
2022-10-23T13:40:00.680Z,98979.06
2022-10-23T13:42:28.246Z,98983.63
2022-10-23T13:44:55.881Z,98962.09
2022-10-23T13:47:23.503Z,98955.69
2022-10-23T13:49:51.028Z,98936.84
2022-10-23T13:52:23.322Z,98935.03
2022-10-23T13:54:50.993Z,98940.50
2022-10-23T13:57:18.471Z,98943.34
2022-10-23T13:59:45.979Z,98931.22
2022-10-23T14:02:20.760Z,98934.16
2022-10-23T14:04:48.673Z,98927.81
2022-10-23T14:07:16.237Z,98935.06
2022-10-23T14:09:45.674Z,98933.22
2022-10-23T14:12:13.500Z,98921.00
2022-10-23T14:14:41.048Z,98922.88
2022-10-23T14:17:08.561Z,98921.31
2022-10-23T14:22:04.457Z,98917.91
2022-10-23T14:24:31.913Z,98919.88
2022-10-23T14:27:00.702Z,98928.94
2022-10-23T14:29:28.262Z,98923.16
2022-10-23T14:31:55.757Z,98924.31
2022-10-23T14:34:23.813Z,98929.41
2022-10-23T14:37:07.485Z,98915.25
2022-10-23T14:39:35.888Z,98920.06
2022-10-23T14:42:05.032Z,98912.56
2022-10-23T14:44:32.573Z,98906.84
2022-10-23T14:47:00.323Z,98886.84
2022-10-23T14:49:27.829Z,98891.13
2022-10-23T14:51:55.363Z,98888.13
2022-10-23T14:54:22.807Z,98878.81
2022-10-23T14:56:50.272Z,98878.09
2022-10-23T14:59:19.094Z,98883.06
2022-10-23T15:01:48.376Z,98872.56
2022-10-23T15:04:16.435Z,98874.88
2022-10-23T15:06:44.133Z,98865.47
2022-10-23T15:09:11.699Z,98845.94
2022-10-23T15:11:39.181Z,98843.81
2022-10-23T15:14:07.676Z,98849.34
2022-10-23T15:16:40.989Z,98854.88
2022-10-23T15:19:10.897Z,98864.97
2022-10-23T15:21:41.109Z,98876.34
2022-10-23T15:24:08.826Z,98868.78
2022-10-23T15:26:38.078Z,98887.25
2022-10-23T15:29:06.568Z,98906.41
2022-10-23T15:31:56.427Z,98907.53
2022-10-23T15:34:25.897Z,98907.56
2022-10-23T15:36:54.606Z,98920.16
2022-10-23T15:39:24.376Z,98931.25
2022-10-23T15:41:53.133Z,98916.38
2022-10-23T15:44:22.434Z,98902.59
2022-10-23T15:46:51.571Z,98896.38
2022-10-23T15:49:19.813Z,98892.66
2022-10-23T15:51:47.510Z,98894.22
2022-10-23T15:54:18.277Z,98908.25
2022-10-23T15:56:46.291Z,98927.09
2022-10-23T15:59:13.969Z,98935.19
2022-10-23T16:01:41.749Z,98918.44
2022-10-23T16:04:10.970Z,98920.00
2022-10-23T16:06:38.510Z,98921.28
2022-10-23T16:09:06.334Z,98920.28
2022-10-23T16:11:36.904Z,98912.00
2022-10-23T16:14:05.297Z,98911.84
2022-10-23T16:16:34.091Z,98908.59
2022-10-23T16:19:03.653Z,98917.69
2022-10-23T16:21:34.906Z,98926.44
2022-10-23T16:24:04.855Z,98924.63
2022-10-23T16:26:32.907Z,98944.72
2022-10-23T16:29:02.323Z,98957.78
2022-10-23T16:31:30.529Z,98959.34
2022-10-23T16:36:32.639Z,98973.09
2022-10-23T16:39:02.181Z,98980.59
2022-10-23T16:41:29.656Z,98988.22
2022-10-23T16:43:57.222Z,98981.28
2022-10-23T16:46:24.706Z,98976.84
2022-10-23T16:48:52.634Z,98976.75
2022-10-23T16:51:23.031Z,98989.22
2022-10-23T16:53:52.632Z,98985.28
2022-10-23T16:56:22.458Z,98976.19
2022-10-23T16:58:50.154Z,98974.28
2022-10-23T17:01:19.965Z,98976.03
2022-10-23T17:03:49.891Z,99002.78
2022-10-23T17:06:19.134Z,98998.34
2022-10-23T17:08:47.106Z,99008.84
2022-10-23T17:11:17.729Z,99033.41
2022-10-23T17:13:47.342Z,99041.16
2022-10-23T17:16:16.804Z,99064.91
2022-10-23T17:18:45.963Z,99061.47
2022-10-23T17:21:14.505Z,99062.00
2022-10-23T17:23:42.921Z,99052.22
2022-10-23T17:26:12.442Z,99006.84
2022-10-23T17:28:42.917Z,98981.34
2022-10-23T17:31:15.284Z,98954.88
2022-10-23T17:33:43.563Z,98952.75
2022-10-23T17:36:11.472Z,98916.16
2022-10-23T17:38:40.174Z,98926.63
2022-10-23T17:41:09.234Z,98909.66
2022-10-23T17:43:37.566Z,98923.59
2022-10-23T17:46:08.515Z,98921.88
2022-10-23T17:48:36.344Z,98927.69
2022-10-23T17:51:05.900Z,98909.59
2022-10-23T17:53:34.875Z,98918.53
2022-10-23T17:56:03.214Z,98918.22
2022-10-23T17:58:30.815Z,98916.13
2022-10-23T18:00:58.408Z,98930.91
2022-10-23T18:03:27.256Z,98943.81
2022-10-23T18:05:54.720Z,98949.31
2022-10-23T18:08:22.195Z,98939.94
2022-10-23T18:10:49.626Z,98931.13
2022-10-23T18:13:17.111Z,98932.09
2022-10-23T18:15:44.575Z,98929.56
2022-10-23T18:18:12.055Z,98927.72
2022-10-23T18:20:41.842Z,98920.53
2022-10-23T18:23:09.682Z,98928.72
2022-10-23T18:25:42.702Z,98922.13
2022-10-23T18:28:10.344Z,98898.44
2022-10-23T18:33:10.664Z,98892.50
2022-10-23T18:35:38.266Z,98891.13
2022-10-23T18:38:07.102Z,98886.59
2022-10-23T18:40:35.448Z,98884.91
2022-10-23T18:43:03.043Z,98884.28
2022-10-23T18:45:31.009Z,98880.06
2022-10-23T18:47:58.687Z,98878.72
2022-10-23T18:50:26.246Z,98880.53
2022-10-23T18:52:53.937Z,98874.84
2022-10-23T18:55:22.818Z,98879.41
2022-10-23T18:57:50.290Z,98867.84
2022-10-23T19:00:18.168Z,98873.81
2022-10-23T19:02:49.877Z,98867.47
2022-10-23T19:05:19.494Z,98863.59
2022-10-23T19:07:49.015Z,98868.94
2022-10-23T19:10:19.308Z,98862.59
2022-10-23T19:12:48.347Z,98859.50
2022-10-23T19:15:15.862Z,98854.56
2022-10-23T19:17:43.360Z,98846.97
2022-10-23T19:20:14.639Z,98842.22
2022-10-23T19:22:45.661Z,98857.47
2022-10-23T19:25:16.568Z,98841.94
2022-10-23T19:27:46.733Z,98841.59
2022-10-23T19:30:20.560Z,98852.53
2022-10-23T19:32:50.942Z,98840.00
2022-10-23T19:35:20.791Z,98848.88
2022-10-23T19:37:48.686Z,98840.81
2022-10-23T19:40:16.802Z,98829.63
2022-10-23T19:42:44.965Z,98834.16
2022-10-23T19:45:16.104Z,98833.31
2022-10-23T19:47:44.742Z,98851.25
2022-10-23T19:50:12.942Z,98843.78
2022-10-23T19:52:40.893Z,98849.16
2022-10-23T19:55:09.549Z,98851.47
2022-10-23T19:57:37.068Z,98846.47
2022-10-23T20:00:06.229Z,98845.38
2022-10-23T20:05:09.715Z,98844.50
2022-10-23T20:07:37.349Z,98853.88
2022-10-23T20:10:06.892Z,98853.72
2022-10-23T20:12:34.423Z,98832.00
2022-10-23T20:15:01.897Z,98839.25
2022-10-23T20:17:29.379Z,98845.06
2022-10-23T20:19:58.194Z,98845.22
2022-10-23T20:22:25.691Z,98865.88
2022-10-23T20:24:53.297Z,98865.53
2022-10-23T20:27:20.823Z,98847.44
2022-10-23T20:29:48.580Z,98861.72
2022-10-23T20:32:16.708Z,98865.41
2022-10-23T20:34:44.320Z,98874.69
2022-10-23T20:37:13.185Z,98888.56
2022-10-23T20:39:40.618Z,98884.22
2022-10-23T20:42:08.408Z,98891.78
2022-10-23T20:44:36.132Z,98885.50
2022-10-23T20:47:04.257Z,98921.00
2022-10-23T20:49:31.723Z,98933.91
2022-10-23T20:51:59.254Z,98934.91
2022-10-23T20:54:28.746Z,98942.31
2022-10-23T20:56:57.368Z,98956.66
2022-10-23T20:59:25.064Z,98968.53
2022-10-23T21:01:55.038Z,98989.03
2022-10-23T21:04:25.034Z,98998.47
2022-10-23T21:07:08.982Z,99002.72
2022-10-23T21:09:38.940Z,98999.22
2022-10-23T21:12:07.325Z,99012.06
2022-10-23T21:14:35.141Z,99007.13
2022-10-23T21:17:03.071Z,98997.63
2022-10-23T21:19:30.565Z,98982.78
2022-10-23T21:21:58.079Z,98966.66
2022-10-23T21:24:25.582Z,98964.34
2022-10-23T21:26:54.386Z,98952.91
2022-10-23T21:29:21.853Z,98947.09
2022-10-23T21:31:53.508Z,98953.91
2022-10-23T21:34:21.012Z,98963.81
2022-10-23T21:37:11.484Z,98954.19
2022-10-23T21:39:35.996Z,98948.78
2022-10-23T21:42:05.371Z,98949.72
2022-10-23T21:44:32.838Z,98947.34
2022-10-23T21:47:00.466Z,98960.78
2022-10-23T21:49:28.030Z,98949.25
2022-10-23T21:51:55.678Z,98950.94
2022-10-23T21:54:23.509Z,98959.78
2022-10-23T21:56:53.408Z,98961.22
2022-10-23T21:59:27.881Z,98958.44
2022-10-23T22:01:57.819Z,98958.44
2022-10-23T22:04:25.506Z,98953.06
2022-10-23T22:06:53.071Z,98961.25
2022-10-23T22:09:22.412Z,98961.41
2022-10-23T22:11:50.618Z,98952.97
2022-10-23T22:14:18.510Z,98957.00
2022-10-23T22:16:47.837Z,98956.72
2022-10-23T22:19:17.755Z,98945.94
2022-10-23T22:21:45.921Z,98955.56
2022-10-23T22:24:13.751Z,98953.59
2022-10-23T22:26:43.317Z,98951.34
2022-10-23T22:29:12.615Z,98960.53
2022-10-23T22:31:44.176Z,98953.59
2022-10-23T22:34:34.842Z,98937.38
2022-10-23T22:37:05.784Z,98947.38
2022-10-23T22:39:33.265Z,98940.16
2022-10-23T22:42:00.704Z,98935.06
2022-10-23T22:44:28.364Z,98946.25
2022-10-23T22:46:55.968Z,98946.25
2022-10-23T22:49:24.801Z,98948.94
2022-10-23T22:51:52.321Z,98951.25
2022-10-23T22:54:19.757Z,98947.97
2022-10-23T22:56:47.315Z,98946.22
2022-10-23T22:59:14.802Z,98935.84
2022-10-23T23:01:44.189Z,98937.94
2022-10-23T23:04:36.811Z,98954.25
2022-10-23T23:07:01.974Z,98948.06
2022-10-23T23:09:29.440Z,98954.53
2022-10-23T23:11:56.889Z,98943.53
2022-10-23T23:14:24.653Z,98933.53
2022-10-23T23:16:52.945Z,98936.22
2022-10-23T23:19:22.756Z,98930.84
2022-10-23T23:21:50.292Z,98928.59
2022-10-23T23:24:19.120Z,98932.03
2022-10-23T23:26:46.553Z,98938.31
2022-10-23T23:29:14.173Z,98933.13
2022-10-23T23:31:41.653Z,98937.41
2022-10-23T23:34:09.314Z,98930.31
2022-10-23T23:36:36.786Z,98935.09
2022-10-23T23:41:38.652Z,98942.50
2022-10-23T23:44:08.209Z,98938.84
2022-10-23T23:46:35.706Z,98944.19
2022-10-23T23:49:03.199Z,98932.13
2022-10-23T23:51:30.729Z,98933.59
2022-10-23T23:53:58.282Z,98934.66
2022-10-23T23:56:25.814Z,98924.75
2022-10-23T23:58:54.765Z,98921.47
